Time;durP1;ratioP1;P1;durP2;ratioP2;P2;SDS_P1;SDS_P2;PMS_P1;PMS_P2;Temp;Humidity;BMP_temperature;BMP_pressure;BME280_temperature;BME280_humidity;BME280_pressure;Samples;Min_cycle;Max_cycle;Signal;HPM_P1;HPM_P2
2022/08/04 00:00:15;;;;;;;;;;;;;;;;;;5108813;28;20002;-83
2022/08/04 00:03:06;;;;;;;;;;;;;;;;;;5097513;28;19959;-83
2022/08/04 00:05:40;;;;;;;;;;;;;;;;;;5082145;28;19991;-83
2022/08/04 00:08:11;;;;;;;;;;;;;;;;;;5114845;28;19971;-83
2022/08/04 00:10:39;;;;;;;;;;;;;;;;;;5097467;28;20390;-83
2022/08/04 00:13:07;;;;;;;;;;;;;;;;;;5114508;28;19931;-84
2022/08/04 00:15:34;;;;;;;;;;;;;;;;;;5096952;28;19975;-84
2022/08/04 00:18:03;;;;;;;;;;;;;;;;;;5115567;28;19924;-82
2022/08/04 00:20:30;;;;;;;;;;;;;;;;;;5098466;28;19971;-82
2022/08/04 00:22:59;;;;;;;;;;;;;;;;;;5114210;28;19924;-84
2022/08/04 00:25:25;;;;;;;;;;;;;;;;;;5100733;28;20474;-83
2022/08/04 00:27:52;;;;;;;;;;;;;;;;;;5117787;28;19967;-83
2022/08/04 00:30:18;;;;;;;;;;;;;;;;;;5117578;28;19931;-82
2022/08/04 00:32:45;;;;;;;;;;;;;;;;;;5102348;28;19959;-83
2022/08/04 00:35:13;;;;;;;;;;;;;;;;;;5096416;28;20418;-83
2022/08/04 00:37:41;;;;;;;;;;;;;;;;;;5111486;28;20335;-83
2022/08/04 00:40:12;;;;;;;;;;;;;;;;;;5113203;28;19985;-82
2022/08/04 00:42:42;;;;;;;;;;;;;;;;;;5112035;28;19974;-82
2022/08/04 00:45:28;;;;;;;;;;;;;;;;;;5117008;28;20270;-85
2022/08/04 00:48:04;;;;;;;;;;;;;;;;;;5116866;28;19924;-85
2022/08/04 00:50:36;;;;;;;;;;;;;;;;;;5117469;28;20365;-85
2022/08/04 00:53:08;;;;;;;;;;;;;;;;;;5120864;28;19962;-84
2022/08/04 00:55:53;;;;;;;;;;;;;;;;;;5121945;28;19947;-84
2022/08/04 00:58:37;;;;;;;;;;;;;;;;;;5117667;28;20355;-85
2022/08/04 01:01:05;;;;;;;;;;;;;;;;;;5117926;28;19963;-85
2022/08/04 01:03:46;;;;;;;;;;;;;;;;;;5117645;28;19993;-84
2022/08/04 01:06:18;;;;;;;;;;;;;;;;;;5117666;28;19923;-85
2022/08/04 01:08:49;;;;;;;;;;;;;;;;;;5118013;28;19978;-84
2022/08/04 01:11:22;;;;;;;;;;;;;;;;;;5118209;28;19923;-86
2022/08/04 01:14:09;;;;;;;;;;;;;;;;;;5117644;28;19963;-85
2022/08/04 01:16:37;;;;;;;;;;;;;;;;;;5117844;28;20357;-85
2022/08/04 01:19:07;;;;;;;;;;;;;;;;;;5114965;28;20052;-87
2022/08/04 01:21:53;;;;;;;;;;;;;;;;;;5096343;28;19924;-85
2022/08/04 01:24:51;;;;;;;;;;;;;;;;;;5095990;28;19970;-85
2022/08/04 01:27:22;;;;;;;;;;;;;;;;;;5095927;28;20011;-85
2022/08/04 01:29:51;;;;;;;;;;;;;;;;;;5095876;28;20029;-85
2022/08/04 01:32:20;;;;;;;;;;;;;;;;;;5095790;28;20451;-85
2022/08/04 01:34:51;;;;;;;;;;;;;;;;;;5096152;28;19924;-85
2022/08/04 01:37:24;;;;;;;;;;;;;;;;;;5096742;28;19963;-85
2022/08/04 01:39:51;;;;;;;;;;;;;;;;;;5095406;28;19967;-84
2022/08/04 01:42:19;;;;;;;;;;;;;;;;;;5096075;28;19931;-85
2022/08/04 01:44:47;;;;;;;;;;;;;;;;;;5096151;28;19945;-85
2022/08/04 01:47:16;;;;;;;;;;;;;;;;;;5096720;28;19967;-85
2022/08/04 01:49:44;;;;;;;;;;;;;;;;;;5095906;28;20014;-85
2022/08/04 01:52:11;;;;;;;;;;;;;;;;;;5107910;28;19968;-85
2022/08/04 01:54:40;;;;;;;;;;;;;;;;;;5116604;28;19980;-85
2022/08/04 01:57:06;;;;;;;;;;;;;;;;;;5113982;28;20425;-85
2022/08/04 01:59:34;;;;;;;;;;;;;;;;;;5109099;28;19930;-84
2022/08/04 02:02:00;;;;;;;;;;;;;;;;;;5102629;28;19935;-86
2022/08/04 02:04:28;;;;;;;;;;;;;;;;;;5120069;28;19988;-86
2022/08/04 02:07:02;;;;;;;;;;;;;;;;;;5119514;28;19930;-86
2022/08/04 02:09:30;;;;;;;;;;;;;;;;;;5104253;28;19971;-85
2022/08/04 02:12:02;;;;;;;;;;;;;;;;;;5102384;28;20015;-84
2022/08/04 02:14:42;;;;;;;;;;;;;;;;;;5103005;28;19992;-85
2022/08/04 02:17:10;;;;;;;;;;;;;;;;;;5108888;28;19951;-84
2022/08/04 02:19:43;;;;;;;;;;;;;;;;;;5128590;22;20423;-64
2022/08/04 02:22:15;;;;;;;;;;;;;;;;;;5071745;28;20476;-64
2022/08/04 02:24:45;;;;;;;;;;;;;;;;;;5072320;28;19978;-62
2022/08/04 02:27:13;;;;;;;;;;;;;;;;;;5072607;28;19955;-63
2022/08/04 02:29:45;;;;;;;;;;;;;;;;;;5072180;28;19931;-63
2022/08/04 02:32:15;;;;;;;;;;;;;;;;;;5072381;28;20389;-64
2022/08/04 02:34:46;;;;;;;;;;;;;;;;;;5072754;28;20324;-64
2022/08/04 02:37:14;;;;;;;;;;;;;;;;;;5072380;28;20448;-63
2022/08/04 02:39:42;;;;;;;;;;;;;;;;;;5072217;28;20519;-64
2022/08/04 02:42:10;;;;;;;;;;;;;;;;;;5072151;28;19933;-64
2022/08/04 02:44:37;;;;;;;;;;;;;;;;;;5072466;28;19928;-64
2022/08/04 02:47:04;;;;;;;;;;;;;;;;;;5072156;28;19947;-64
2022/08/04 02:49:35;;;;;;;;;;;;;;;;;;5072587;28;19928;-63
2022/08/04 02:52:04;;;;;;;;;;;;;;;;;;5072069;28;19925;-64
2022/08/04 02:54:34;;;;;;;;;;;;;;;;;;5072156;28;19924;-63
2022/08/04 02:57:01;;;;;;;;;;;;;;;;;;5072254;28;20274;-64
2022/08/04 02:59:30;;;;;;;;;;;;;;;;;;5072276;28;19924;-63
2022/08/04 03:01:57;;;;;;;;;;;;;;;;;;5071682;28;19932;-64
2022/08/04 03:04:31;;;;;;;;;;;;;;;;;;5072467;28;19978;-62
2022/08/04 03:07:18;;;;;;;;;;;;;;;;;;5071940;28;20394;-63
2022/08/04 03:10:00;;;;;;;;;;;;;;;;;;5071433;28;20019;-65
2022/08/04 03:12:39;;;;;;;;;;;;;;;;;;5071985;28;20019;-63
2022/08/04 03:15:16;;;;;;;;;;;;;;;;;;5072037;28;20348;-64
2022/08/04 03:18:10;;;;;;;;;;;;;;;;;;5072286;28;19924;-65
2022/08/04 03:20:54;;;;;;;;;;;;;;;;;;5035908;28;19935;-64
2022/08/04 03:23:40;;;;;;;;;;;;;;;;;;5065175;28;19924;-63
2022/08/04 03:26:29;;;;;;;;;;;;;;;;;;5071536;28;19924;-65
2022/08/04 03:29:11;;;;;;;;;;;;;;;;;;5071824;28;19924;-64
2022/08/04 03:31:56;;;;;;;;;;;;;;;;;;5069188;28;19925;-64
2022/08/04 03:34:28;;;;;;;;;;;;;;;;;;5071600;28;19936;-62
2022/08/04 03:37:12;;;;;;;;;;;;;;;;;;5071467;28;20380;-64
2022/08/04 03:39:56;;;;;;;;;;;;;;;;;;5071190;28;19960;-63
2022/08/04 03:42:40;;;;;;;;;;;;;;;;;;5071635;28;20037;-64
2022/08/04 03:45:34;;;;;;;;;;;;;;;;;;5071607;28;20389;-62
2022/08/04 03:48:18;;;;;;;;;;;;;;;;;;5071436;28;19925;-64
2022/08/04 03:53:43;;;;;;;;;;;;;;;;;;5071193;28;20150;-65
2022/08/04 03:56:28;;;;;;;;;;;;;;;;;;5071632;28;19925;-64
2022/08/04 03:59:12;;;;;;;;;;;;;;;;;;5071558;28;19932;-64
2022/08/04 04:02:00;;;;;;;;;;;;;;;;;;5040555;28;19995;-64
2022/08/04 04:04:34;;;;;;;;;;;;;;;;;;5071016;28;19964;-65
2022/08/04 04:07:13;;;;;;;;;;;;;;;;;;5071307;28;19982;-65
2022/08/04 04:10:00;;;;;;;;;;;;;;;;;;5071162;28;19924;-63
2022/08/04 04:12:38;;;;;;;;;;;;;;;;;;5070930;28;19931;-64
2022/08/04 04:15:14;;;;;;;;;;;;;;;;;;5070928;28;19932;-62
2022/08/04 04:17:54;;;;;;;;;;;;;;;;;;5071327;28;19924;-64
2022/08/04 04:20:33;;;;;;;;;;;;;;;;;;5070985;28;19947;-63
2022/08/04 04:23:10;;;;;;;;;;;;;;;;;;5059174;28;19924;-64
2022/08/04 04:25:41;;;;;;;;;;;;;;;;;;5074771;28;19981;-63
2022/08/04 04:28:21;;;;;;;;;;;;;;;;;;5075087;28;19925;-63
2022/08/04 04:30:52;;;;;;;;;;;;;;;;;;5074851;28;20301;-63
2022/08/04 04:33:26;;;;;;;;;;;;;;;;;;5075041;28;19928;-64
2022/08/04 04:35:57;;;;;;;;;;;;;;;;;;5059235;28;20304;-65
2022/08/04 04:38:29;;;;;;;;;;;;;;;;;;5074706;28;20339;-63
2022/08/04 04:40:59;;;;;;;;;;;;;;;;;;5074598;28;20388;-64
2022/08/04 04:43:37;;;;;;;;;;;;;;;;;;5074268;28;19932;-64
2022/08/04 04:46:06;;;;;;;;;;;;;;;;;;5075374;28;19983;-62
2022/08/04 04:48:36;;;;;;;;;;;;;;;;;;5056454;28;20429;-64
2022/08/04 04:51:10;;;;;;;;;;;;;;;;;;5074147;28;19939;-64
2022/08/04 04:53:40;;;;;;;;;;;;;;;;;;5074169;28;19929;-65
2022/08/04 04:56:10;;;;;;;;;;;;;;;;;;5074478;28;19928;-65
2022/08/04 04:58:38;;;;;;;;;;;;;;;;;;5074071;28;19924;-64
2022/08/04 05:01:22;;;;;;;;;;;;;;;;;;5073615;28;19924;-63
2022/08/04 05:03:53;;;;;;;;;;;;;;;;;;5043023;28;20313;-64
2022/08/04 05:06:26;;;;;;;;;;;;;;;;;;5074245;28;19932;-63
2022/08/04 05:09:07;;;;;;;;;;;;;;;;;;5073882;28;19924;-63
2022/08/04 05:11:48;;;;;;;;;;;;;;;;;;5073507;28;19929;-63
2022/08/04 05:14:18;;;;;;;;;;;;;;;;;;5074191;28;19924;-65
2022/08/04 05:16:47;;;;;;;;;;;;;;;;;;5074232;28;19967;-64
2022/08/04 05:19:20;;;;;;;;;;;;;;;;;;5073649;28;19929;-65
2022/08/04 05:21:49;;;;;;;;;;;;;;;;;;5073358;28;19924;-65
2022/08/04 05:24:18;;;;;;;;;;;;;;;;;;5073898;28;19932;-65
2022/08/04 05:26:46;;;;;;;;;;;;;;;;;;5073539;28;19924;-64
2022/08/04 05:29:17;;;;;;;;;;;;;;;;;;5073301;28;19924;-64
2022/08/04 05:31:49;;;;;;;;;;;;;;;;;;5073033;28;20451;-64
2022/08/04 05:34:20;;;;;;;;;;;;;;;;;;5073191;28;19928;-64
2022/08/04 05:36:48;;;;;;;;;;;;;;;;;;5073503;28;20365;-65
2022/08/04 05:39:19;;;;;;;;;;;;;;;;;;5073017;28;20373;-63
2022/08/04 05:41:45;;;;;;;;;;;;;;;;;;5073342;28;20381;-63
2022/08/04 05:44:13;;;;;;;;;;;;;;;;;;5072936;28;20351;-64
2022/08/04 05:46:40;;;;;;;;;;;;;;;;;;5073399;28;20010;-64
2022/08/04 05:49:08;;;;;;;;;;;;;;;;;;5073074;28;19925;-63
2022/08/04 05:51:35;;;;;;;;;;;;;;;;;;5073186;28;19947;-64
2022/08/04 05:54:02;;;;;;;;;;;;;;;;;;5072941;28;20382;-63
2022/08/04 05:56:32;;;;;;;;;;;;;;;;;;5073167;28;19995;-65
2022/08/04 05:58:59;;;;;;;;;;;;;;;;;;5073623;28;20007;-63
2022/08/04 06:01:26;;;;;;;;;;;;;;;;;;5072839;28;19977;-63
2022/08/04 06:03:55;;;;;;;;;;;;;;;;;;5073138;28;19978;-64
2022/08/04 06:06:22;;;;;;;;;;;;;;;;;;5073204;28;19933;-64
2022/08/04 06:08:49;;;;;;;;;;;;;;;;;;5073752;28;19925;-64
2022/08/04 06:11:16;;;;;;;;;;;;;;;;;;5073530;28;19931;-63
2022/08/04 06:13:48;;;;;;;;;;;;;;;;;;5072835;28;19924;-62
2022/08/04 06:16:15;;;;;;;;;;;;;;;;;;5073003;28;20359;-64
2022/08/04 06:18:44;;;;;;;;;;;;;;;;;;5072833;28;19947;-61
2022/08/04 06:21:11;;;;;;;;;;;;;;;;;;5072034;28;20018;-65
2022/08/04 06:23:39;;;;;;;;;;;;;;;;;;5072463;28;19924;-65
2022/08/04 06:26:07;;;;;;;;;;;;;;;;;;5072550;28;19986;-63
2022/08/04 06:28:33;;;;;;;;;;;;;;;;;;5072430;28;19931;-64
2022/08/04 06:31:04;;;;;;;;;;;;;;;;;;5072076;28;20400;-65
2022/08/04 06:33:33;;;;;;;;;;;;;;;;;;5072709;28;19967;-64
2022/08/04 06:36:01;;;;;;;;;;;;;;;;;;5072099;28;20018;-63
2022/08/04 06:38:28;;;;;;;;;;;;;;;;;;5072426;28;19924;-65
2022/08/04 06:40:56;;;;;;;;;;;;;;;;;;5072026;28;20360;-63
2022/08/04 06:43:23;;;;;;;;;;;;;;;;;;5072154;28;19932;-63
2022/08/04 06:45:50;;;;;;;;;;;;;;;;;;5071953;28;19932;-63
2022/08/04 06:48:19;;;;;;;;;;;;;;;;;;5072333;28;19932;-65
2022/08/04 06:50:47;;;;;;;;;;;;;;;;;;5071598;28;19928;-64
2022/08/04 06:53:14;;;;;;;;;;;;;;;;;;5071927;28;19931;-63
2022/08/04 06:55:42;;;;;;;;;;;;;;;;;;5072013;28;19932;-67
2022/08/04 06:58:10;;;;;;;;;;;;;;;;;;5072170;28;19974;-64
2022/08/04 07:00:37;;;;;;;;;;;;;;;;;;5071690;28;19931;-65
2022/08/04 07:03:05;;;;;;;;;;;;;;;;;;5072254;28;20332;-64
2022/08/04 07:05:34;;;;;;;;;;;;;;;;;;5071824;28;19934;-65
2022/08/04 07:08:01;;;;;;;;;;;;;;;;;;5071789;28;19924;-64
2022/08/04 07:10:28;;;;;;;;;;;;;;;;;;5072490;28;19948;-65
2022/08/04 07:12:55;;;;;;;;;;;;;;;;;;5072249;28;19967;-64
2022/08/04 07:15:22;;;;;;;;;;;;;;;;;;5070117;28;19925;-64
2022/08/04 07:17:49;;;;;;;;;;;;;;;;;;5061078;28;19924;-63
2022/08/04 07:20:18;;;;;;;;;;;;;;;;;;5069927;28;19936;-63
2022/08/04 07:22:46;;;;;;;;;;;;;;;;;;5069639;28;19978;-63
2022/08/04 07:25:15;;;;;;;;;;;;;;;;;;5070104;28;19933;-66
2022/08/04 07:27:42;;;;;;;;;;;;;;;;;;5070055;28;19924;-64
2022/08/04 07:30:09;;;;;;;;;;;;;;;;;;5069721;28;19925;-64
2022/08/04 07:32:35;;;;;;;;;;;;;;;;;;5069969;28;19929;-64
2022/08/04 07:35:02;;;;;;;;;;;;;;;;;;5069900;28;19970;-64
2022/08/04 07:37:29;;;;;;;;;;;;;;;;;;5069572;28;19924;-63
2022/08/04 07:39:57;;;;;;;;;;;;;;;;;;5069630;28;19928;-64
2022/08/04 07:42:24;;;;;;;;;;;;;;;;;;5069925;28;19925;-62
2022/08/04 07:44:51;;;;;;;;;;;;;;;;;;5069627;28;19959;-63
2022/08/04 07:47:17;;;;;;;;;;;;;;;;;;5069578;28;20186;-65
2022/08/04 07:49:44;;;;;;;;;;;;;;;;;;5069111;28;19986;-63
2022/08/04 07:52:11;;;;;;;;;;;;;;;;;;5069323;28;20373;-64
2022/08/04 07:54:39;;;;;;;;;;;;;;;;;;5070072;28;20317;-62
2022/08/04 07:57:07;;;;;;;;;;;;;;;;;;5070749;28;20090;-63
2022/08/04 07:59:35;;;;;;;;;;;;;;;;;;5073381;28;20561;-63
2022/08/04 08:02:02;;;;;;;;;;;;;;;;;;5073157;28;19978;-64
2022/08/04 08:04:28;;;;;;;;;;;;;;;;;;5073589;28;20309;-65
2022/08/04 08:06:56;;;;;;;;;;;;;;;;;;5073937;28;19978;-64
2022/08/04 08:09:23;;;;;;;;;;;;;;;;;;5073192;28;19981;-63
2022/08/04 08:11:50;;;;;;;;;;;;;;;;;;5072763;28;19928;-64
2022/08/04 08:14:18;;;;;;;;;;;;;;;;;;5072892;28;19931;-64
2022/08/04 08:16:45;;;;;;;;;;;;;;;;;;5072889;28;19924;-63
2022/08/04 08:19:13;;;;;;;;;;;;;;;;;;5072324;28;19935;-64
2022/08/04 08:21:40;;;;;;;;;;;;;;;;;;5073748;28;20295;-63
2022/08/04 08:24:07;;;;;;;;;;;;;;;;;;5072994;28;20295;-63
2022/08/04 08:26:34;;;;;;;;;;;;;;;;;;5073031;28;20348;-63
2022/08/04 08:29:02;;;;;;;;;;;;;;;;;;5073214;28;20043;-65
2022/08/04 08:31:30;;;;;;;;;;;;;;;;;;5072597;28;20385;-65
2022/08/04 08:33:58;;;;;;;;;;;;;;;;;;5073075;28;19928;-69
2022/08/04 08:36:29;;;;;;;;;;;;;;;;;;5073836;28;19925;-63
2022/08/04 08:39:05;;;;;;;;;;;;;;;;;;5072871;28;19924;-63
2022/08/04 08:41:52;;;;;;;;;;;;;;;;;;5071947;28;19925;-63
2022/08/04 08:44:33;;;;;;;;;;;;;;;;;;5101978;22;19930;-65
2022/08/04 08:47:09;;;;;;;;;;;;;;;;;;5095087;28;20002;-65
2022/08/04 08:49:49;;;;;;;;;;;;;;;;;;5106326;28;19924;-64
2022/08/04 08:52:26;;;;;;;;;;;;;;;;;;5112538;28;20438;-65
2022/08/04 08:54:56;;;;;;;;;;;;;;;;;;5113186;28;19982;-65
2022/08/04 08:57:30;;;;;;;;;;;;;;;;;;5113742;28;19932;-64
2022/08/04 09:00:06;;;;;;;;;;;;;;;;;;5111501;28;19931;-65
2022/08/04 09:02:52;;;;;;;;;;;;;;;;;;5092372;28;19931;-65
2022/08/04 09:05:31;;;;;;;;;;;;;;;;;;5097710;28;19924;-66
2022/08/04 09:08:06;;;;;;;;;;;;;;;;;;5100156;28;19924;-64
2022/08/04 09:10:36;;;;;;;;;;;;;;;;;;5094073;28;19924;-65
2022/08/04 09:13:04;;;;;;;;;;;;;;;;;;5092387;28;19927;-65
2022/08/04 09:15:34;;;;;;;;;;;;;;;;;;5092216;28;20430;-66
2022/08/04 09:18:07;;;;;;;;;;;;;;;;;;5091891;28;20326;-66
2022/08/04 09:20:38;;;;;;;;;;;;;;;;;;5091349;28;19924;-64
2022/08/04 09:23:08;;;;;;;;;;;;;;;;;;5091799;28;19931;-66
2022/08/04 09:25:38;;;;;;;;;;;;;;;;;;5091861;28;19928;-64
2022/08/04 09:28:07;;;;;;;;;;;;;;;;;;5092028;28;19924;-66
2022/08/04 09:30:38;;;;;;;;;;;;;;;;;;5091552;28;20335;-66
2022/08/04 09:33:12;;;;;;;;;;;;;;;;;;5092027;28;20410;-66
2022/08/04 09:35:42;;;;;;;;;;;;;;;;;;5092228;28;19924;-65
2022/08/04 09:38:14;;;;;;;;;;;;;;;;;;5092410;28;19924;-66
2022/08/04 09:40:46;;;;;;;;;;;;;;;;;;5091852;28;19936;-65
2022/08/04 09:43:17;;;;;;;;;;;;;;;;;;5091909;28;20315;-65
2022/08/04 09:45:48;;;;;;;;;;;;;;;;;;5091835;28;20004;-65
2022/08/04 09:48:20;;;;;;;;;;;;;;;;;;5091668;28;20293;-64
2022/08/04 09:50:50;;;;;;;;;;;;;;;;;;5091714;28;19935;-65
2022/08/04 09:53:29;;;;;;;;;;;;;;;;;;5091348;28;19931;-66
2022/08/04 09:56:00;;;;;;;;;;;;;;;;;;5091690;28;20417;-65
2022/08/04 09:58:39;;;;;;;;;;;;;;;;;;5091172;28;19928;-67
2022/08/04 10:01:07;;;;;;;;;;;;;;;;;;5091250;28;19928;-67
2022/08/04 10:03:37;;;;;;;;;;;;;;;;;;5091608;28;20384;-65
2022/08/04 10:06:10;;;;;;;;;;;;;;;;;;5107257;28;19924;-65
2022/08/04 10:08:54;;;;;;;;;;;;;;;;;;5112045;28;19923;-66
2022/08/04 10:11:21;;;;;;;;;;;;;;;;;;5111519;28;19932;-68
2022/08/04 10:13:51;;;;;;;;;;;;;;;;;;5111452;28;19928;-69
2022/08/04 10:16:27;;;;;;;;;;;;;;;;;;5111788;28;19928;-68
2022/08/04 10:19:01;;;;;;;;;;;;;;;;;;5109843;28;19928;-69
2022/08/04 10:21:32;;;;;;;;;;;;;;;;;;5091321;28;19924;-66
2022/08/04 10:24:07;;;;;;;;;;;;;;;;;;5107329;28;19923;-68
2022/08/04 10:26:39;;;;;;;;;;;;;;;;;;5097869;28;20400;-66
2022/08/04 10:29:07;;;;;;;;;;;;;;;;;;5091792;28;20214;-65
2022/08/04 10:31:35;;;;;;;;;;;;;;;;;;5098985;28;19935;-64
2022/08/04 10:34:05;;;;;;;;;;;;;;;;;;5082814;28;20007;-65
2022/08/04 10:36:40;;;;;;;;;;;;;;;;;;5090990;28;19939;-67
2022/08/04 10:39:08;;;;;;;;;;;;;;;;;;5090831;28;20176;-66
2022/08/04 10:41:37;;;;;;;;;;;;;;;;;;5090934;28;19977;-64
2022/08/04 10:44:22;;;;;;;;;;;;;;;;;;5090852;28;19932;-65
2022/08/04 10:46:51;;;;;;;;;;;;;;;;;;5080728;28;20011;-66
2022/08/04 10:49:23;;;;;;;;;;;;;;;;;;5088680;28;19959;-65
2022/08/04 10:51:51;;;;;;;;;;;;;;;;;;5096850;28;19946;-65
2022/08/04 10:54:21;;;;;;;;;;;;;;;;;;5110595;28;19928;-64
2022/08/04 10:56:50;;;;;;;;;;;;;;;;;;5111075;28;19968;-65
2022/08/04 10:59:18;;;;;;;;;;;;;;;;;;5110788;28;19989;-65
2022/08/04 11:01:47;;;;;;;;;;;;;;;;;;5094352;28;20024;-65
2022/08/04 11:04:17;;;;;;;;;;;;;;;;;;5096181;28;19931;-64
2022/08/04 11:06:46;;;;;;;;;;;;;;;;;;5092523;28;19977;-65
2022/08/04 11:09:13;;;;;;;;;;;;;;;;;;5099728;28;20359;-63
2022/08/04 11:11:43;;;;;;;;;;;;;;;;;;5095741;28;19924;-64
2022/08/04 11:14:11;;;;;;;;;;;;;;;;;;5088560;28;19982;-64
2022/08/04 11:16:41;;;;;;;;;;;;;;;;;;5089856;28;19931;-65
2022/08/04 11:19:17;;;;;;;;;;;;;;;;;;5089997;28;20155;-65
2022/08/04 11:21:49;;;;;;;;;;;;;;;;;;5098228;28;19934;-65
2022/08/04 11:24:18;;;;;;;;;;;;;;;;;;5090017;28;19939;-65
2022/08/04 11:26:48;;;;;;;;;;;;;;;;;;5089842;28;19924;-65
2022/08/04 11:29:17;;;;;;;;;;;;;;;;;;5090080;28;19928;-65
2022/08/04 11:31:48;;;;;;;;;;;;;;;;;;5092773;28;20011;-65
2022/08/04 11:34:17;;;;;;;;;;;;;;;;;;5094780;28;19928;-65
2022/08/04 11:36:49;;;;;;;;;;;;;;;;;;5094335;28;19928;-65
2022/08/04 11:39:21;;;;;;;;;;;;;;;;;;5093756;28;19924;-65
2022/08/04 11:41:51;;;;;;;;;;;;;;;;;;5096966;28;19932;-65
2022/08/04 11:44:20;;;;;;;;;;;;;;;;;;5106264;28;19927;-65
2022/08/04 11:46:48;;;;;;;;;;;;;;;;;;5094202;28;19924;-65
2022/08/04 11:49:20;;;;;;;;;;;;;;;;;;5093827;28;19924;-65
2022/08/04 11:51:48;;;;;;;;;;;;;;;;;;5093889;28;19932;-65
2022/08/04 11:54:15;;;;;;;;;;;;;;;;;;5094319;28;20014;-64
2022/08/04 11:56:42;;;;;;;;;;;;;;;;;;5093882;28;19931;-64
2022/08/04 11:59:09;;;;;;;;;;;;;;;;;;5089931;28;19942;-64
2022/08/04 12:01:38;;;;;;;;;;;;;;;;;;5089199;28;19924;-64
2022/08/04 12:04:08;;;;;;;;;;;;;;;;;;5100690;28;20015;-65
2022/08/04 12:06:38;;;;;;;;;;;;;;;;;;5114362;28;19924;-65
2022/08/04 12:09:11;;;;;;;;;;;;;;;;;;5114344;28;20374;-65
2022/08/04 12:11:42;;;;;;;;;;;;;;;;;;5114117;28;19931;-65
2022/08/04 12:14:14;;;;;;;;;;;;;;;;;;5094140;28;19924;-67
2022/08/04 12:16:45;;;;;;;;;;;;;;;;;;5093453;28;20257;-64
2022/08/04 12:19:16;;;;;;;;;;;;;;;;;;5101072;28;20371;-65
2022/08/04 12:21:45;;;;;;;;;;;;;;;;;;5093373;28;19961;-65
2022/08/04 12:24:17;;;;;;;;;;;;;;;;;;5093314;28;19924;-65
2022/08/04 12:26:46;;;;;;;;;;;;;;;;;;5093352;28;20442;-64
2022/08/04 12:29:14;;;;;;;;;;;;;;;;;;5093390;28;19924;-65
2022/08/04 12:31:44;;;;;;;;;;;;;;;;;;5093163;28;20318;-64
2022/08/04 12:34:13;;;;;;;;;;;;;;;;;;5093210;28;19936;-64
2022/08/04 12:36:42;;;;;;;;;;;;;;;;;;5093142;28;19924;-64
2022/08/04 12:39:11;;;;;;;;;;;;;;;;;;5096330;28;20022;-64
2022/08/04 12:41:42;;;;;;;;;;;;;;;;;;5093466;28;19938;-64
2022/08/04 12:44:10;;;;;;;;;;;;;;;;;;5091642;28;19924;-64
2022/08/04 12:46:37;;;;;;;;;;;;;;;;;;5092624;28;19924;-64
2022/08/04 12:49:04;;;;;;;;;;;;;;;;;;5092373;28;19931;-63
2022/08/04 12:51:37;;;;;;;;;;;;;;;;;;5092897;28;19932;-64
2022/08/04 12:54:04;;;;;;;;;;;;;;;;;;5093694;28;20509;-64
2022/08/04 12:56:31;;;;;;;;;;;;;;;;;;5099286;28;19984;-64
2022/08/04 12:59:02;;;;;;;;;;;;;;;;;;5097691;28;20003;-64
2022/08/04 13:01:29;;;;;;;;;;;;;;;;;;5092952;28;19978;-63
2022/08/04 13:03:57;;;;;;;;;;;;;;;;;;5096336;28;19979;-64
2022/08/04 13:06:24;;;;;;;;;;;;;;;;;;5092542;28;19932;-64
2022/08/04 13:08:51;;;;;;;;;;;;;;;;;;5092190;28;19994;-63
2022/08/04 13:11:18;;;;;;;;;;;;;;;;;;5092385;28;19924;-63
2022/08/04 13:13:45;;;;;;;;;;;;;;;;;;5095581;28;20424;-64
2022/08/04 13:16:14;;;;;;;;;;;;;;;;;;5092355;28;19973;-64
2022/08/04 13:18:45;;;;;;;;;;;;;;;;;;5092487;28;19956;-63
2022/08/04 13:21:13;;;;;;;;;;;;;;;;;;5092086;28;20159;-64
2022/08/04 13:23:41;;;;;;;;;;;;;;;;;;5092231;28;19924;-64
2022/08/04 13:26:08;;;;;;;;;;;;;;;;;;5093158;28;19924;-64
2022/08/04 13:28:39;;;;;;;;;;;;;;;;;;5112328;28;19932;-64
2022/08/04 13:31:07;;;;;;;;;;;;;;;;;;5104154;28;20010;-64
2022/08/04 13:33:36;;;;;;;;;;;;;;;;;;5098924;28;19928;-64
2022/08/04 13:36:03;;;;;;;;;;;;;;;;;;5091971;28;19924;-64
2022/08/04 13:38:32;;;;;;;;;;;;;;;;;;5094061;28;19955;-63
2022/08/04 13:41:00;;;;;;;;;;;;;;;;;;5112003;28;19924;-65
2022/08/04 13:43:28;;;;;;;;;;;;;;;;;;5108862;28;19932;-64
2022/08/04 13:45:59;;;;;;;;;;;;;;;;;;5105965;28;20298;-64
2022/08/04 13:48:30;;;;;;;;;;;;;;;;;;5112198;28;19928;-64
2022/08/04 13:51:03;;;;;;;;;;;;;;;;;;5112432;28;20568;-64
2022/08/04 13:53:30;;;;;;;;;;;;;;;;;;5112037;28;19930;-64
2022/08/04 13:55:57;;;;;;;;;;;;;;;;;;5097619;28;20023;-66
2022/08/04 13:58:25;;;;;;;;;;;;;;;;;;5091485;28;19928;-65
2022/08/04 14:00:53;;;;;;;;;;;;;;;;;;5091168;28;19984;-65
2022/08/04 14:03:24;;;;;;;;;;;;;;;;;;5091471;28;19969;-64
2022/08/04 14:06:21;;;;;;;;;;;;;;;;;;5102714;28;19923;-64
2022/08/04 14:08:50;;;;;;;;;;;;;;;;;;5028697;28;19931;-64
2022/08/04 14:11:18;;;;;;;;;;;;;;;;;;5093229;28;19939;-65
2022/08/04 14:13:45;;;;;;;;;;;;;;;;;;5111952;28;19934;-64
2022/08/04 14:16:16;;;;;;;;;;;;;;;;;;5111894;28;20392;-66
2022/08/04 14:18:42;;;;;;;;;;;;;;;;;;5098171;28;19924;-65
2022/08/04 14:21:10;;;;;;;;;;;;;;;;;;5099735;28;19924;-65
2022/08/04 14:23:41;;;;;;;;;;;;;;;;;;5090754;28;19924;-65
2022/08/04 14:26:16;;;;;;;;;;;;;;;;;;5103565;28;20253;-66
2022/08/04 14:28:42;;;;;;;;;;;;;;;;;;5102510;28;19924;-66
2022/08/04 14:31:10;;;;;;;;;;;;;;;;;;5109490;28;19932;-66
2022/08/04 14:33:37;;;;;;;;;;;;;;;;;;5111316;28;19930;-64
2022/08/04 14:36:04;;;;;;;;;;;;;;;;;;5103393;28;19928;-65
2022/08/04 14:38:46;;;;;;;;;;;;;;;;;;5091092;28;20413;-65
2022/08/04 14:41:13;;;;;;;;;;;;;;;;;;5088319;28;20396;-64
2022/08/04 14:43:48;;;;;;;;;;;;;;;;;;5091000;28;19924;-64
2022/08/04 14:46:15;;;;;;;;;;;;;;;;;;5091095;28;20304;-66
2022/08/04 14:48:56;;;;;;;;;;;;;;;;;;5090804;28;19927;-66
2022/08/04 14:51:23;;;;;;;;;;;;;;;;;;5090722;28;19924;-65
2022/08/04 14:53:49;;;;;;;;;;;;;;;;;;5090567;28;19983;-65
2022/08/04 14:56:16;;;;;;;;;;;;;;;;;;5090881;28;19924;-66
2022/08/04 14:58:43;;;;;;;;;;;;;;;;;;5091587;28;19931;-65
2022/08/04 15:01:14;;;;;;;;;;;;;;;;;;5090205;28;19924;-66
2022/08/04 15:03:42;;;;;;;;;;;;;;;;;;5090662;28;19924;-65
2022/08/04 15:06:09;;;;;;;;;;;;;;;;;;5106331;28;19924;-65
2022/08/04 15:08:36;;;;;;;;;;;;;;;;;;5090157;28;19931;-66
2022/08/04 15:11:02;;;;;;;;;;;;;;;;;;5110471;28;20292;-67
2022/08/04 15:13:29;;;;;;;;;;;;;;;;;;5099643;28;19928;-65
2022/08/04 15:15:56;;;;;;;;;;;;;;;;;;5092322;28;19923;-64
2022/08/04 15:18:29;;;;;;;;;;;;;;;;;;5109887;28;19924;-65
2022/08/04 15:20:56;;;;;;;;;;;;;;;;;;5075284;28;19931;-65
2022/08/04 15:23:22;;;;;;;;;;;;;;;;;;5103352;28;20377;-65
2022/08/04 15:25:54;;;;;;;;;;;;;;;;;;5121891;22;19927;-66
2022/08/04 15:28:23;;;;;;;;;;;;;;;;;;5110910;28;20337;-66
2022/08/04 15:30:50;;;;;;;;;;;;;;;;;;5110296;28;19923;-65
2022/08/04 15:33:22;;;;;;;;;;;;;;;;;;5094050;28;20072;-66
2022/08/04 15:35:51;;;;;;;;;;;;;;;;;;5107570;28;20451;-66
2022/08/04 15:38:25;;;;;;;;;;;;;;;;;;5111391;28;20484;-67
2022/08/04 15:40:55;;;;;;;;;;;;;;;;;;5110096;28;19946;-66
2022/08/04 15:43:30;;;;;;;;;;;;;;;;;;5110748;28;19943;-66
2022/08/04 15:45:59;;;;;;;;;;;;;;;;;;5110278;28;19978;-67
2022/08/04 15:48:27;;;;;;;;;;;;;;;;;;5110434;28;19924;-66
2022/08/04 15:51:03;;;;;;;;;;;;;;;;;;5110169;28;20395;-66
2022/08/04 15:53:30;;;;;;;;;;;;;;;;;;5110518;28;19924;-66
2022/08/04 15:55:57;;;;;;;;;;;;;;;;;;5110938;28;19924;-66
2022/08/04 15:58:23;;;;;;;;;;;;;;;;;;5124761;28;19931;-66
2022/08/04 16:01:09;;;;;;;;;;;;;;;;;;5121804;28;20453;-66
2022/08/04 16:03:42;;;;;;;;;;;;;;;;;;5110557;28;19924;-66
2022/08/04 16:06:27;;;;;;;;;;;;;;;;;;5110280;28;20342;-66
2022/08/04 16:08:59;;;;;;;;;;;;;;;;;;5110382;28;20300;-66
2022/08/04 16:11:47;;;;;;;;;;;;;;;;;;5109611;28;20591;-69
2022/08/04 16:14:13;;;;;;;;;;;;;;;;;;5083320;28;19928;-67
2022/08/04 16:16:48;;;;;;;;;;;;;;;;;;5090961;28;19951;-65
2022/08/04 16:19:21;;;;;;;;;;;;;;;;;;5111005;28;20010;-66
2022/08/04 16:21:48;;;;;;;;;;;;;;;;;;5114381;28;20277;-66
2022/08/04 16:24:20;;;;;;;;;;;;;;;;;;5114727;28;20348;-71
2022/08/04 16:26:48;;;;;;;;;;;;;;;;;;5113827;28;19967;-69
2022/08/04 16:29:34;;;;;;;;;;;;;;;;;;5114292;28;20014;-66
2022/08/04 16:32:17;;;;;;;;;;;;;;;;;;5114226;28;19971;-67
2022/08/04 16:34:47;;;;;;;;;;;;;;;;;;5114154;28;19924;-66
2022/08/04 16:37:13;;;;;;;;;;;;;;;;;;5114180;28;19927;-67
2022/08/04 16:39:41;;;;;;;;;;;;;;;;;;5114116;28;19930;-67
2022/08/04 16:42:26;;;;;;;;;;;;;;;;;;5112426;28;20004;-67
2022/08/04 16:44:58;;;;;;;;;;;;;;;;;;5114222;28;20380;-67
2022/08/04 16:47:45;;;;;;;;;;;;;;;;;;5113782;28;20314;-66
2022/08/04 16:50:13;;;;;;;;;;;;;;;;;;5114929;28;20221;-66
2022/08/04 16:52:42;;;;;;;;;;;;;;;;;;5114603;28;19923;-66
2022/08/04 16:55:10;;;;;;;;;;;;;;;;;;5114085;28;19930;-67
2022/08/04 16:57:37;;;;;;;;;;;;;;;;;;5113443;28;19931;-66
2022/08/04 17:00:04;;;;;;;;;;;;;;;;;;5114080;28;19928;-67
2022/08/04 17:02:31;;;;;;;;;;;;;;;;;;5129232;27;19923;-66
2022/08/04 17:04:58;;;;;;;;;;;;;;;;;;5125259;27;20411;-68
2022/08/04 17:07:25;;;;;;;;;;;;;;;;;;5117091;28;20283;-66
2022/08/04 17:09:51;;;;;;;;;;;;;;;;;;5116307;28;19924;-67
2022/08/04 17:12:19;;;;;;;;;;;;;;;;;;5115524;28;19938;-68
2022/08/04 17:14:46;;;;;;;;;;;;;;;;;;5115397;28;19966;-68